Time;durP1;ratioP1;P1;durP2;ratioP2;P2;SDS_P1;SDS_P2;PMS_P1;PMS_P2;Temp;Humidity;BMP_temperature;BMP_pressure;BME280_temperature;BME280_humidity;BME280_pressure;Samples;Min_cycle;Max_cycle;Signal;HPM_P1;HPM_P2
2023/04/14 00:01:28;;;;;;;0.45;0.43;;;;;;;9.17;85.94;100258.53;5002717;28;20026;-69
2023/04/14 00:03:53;;;;;;;0.35;0.35;;;;;;;9.12;86.09;100260.72;4998163;28;20096;-69
2023/04/14 00:06:19;;;;;;;0.47;0.47;;;;;;;9.08;85.89;100260.63;5009347;28;20083;-69
2023/04/14 00:08:44;;;;;;;0.50;0.50;;;;;;;8.93;85.71;100266.84;5010485;28;20168;-69
2023/04/14 00:11:10;;;;;;;0.55;0.55;;;;;;;8.82;86.42;100250.53;5009409;28;20038;-70
2023/04/14 00:13:35;;;;;;;1.25;0.60;;;;;;;8.84;86.80;100258.25;4992870;28;20029;-69
2023/04/14 00:16:01;;;;;;;0.50;0.50;;;;;;;8.94;86.59;100260.38;5009005;28;20375;-69
2023/04/14 00:18:27;;;;;;;1.45;0.55;;;;;;;8.97;85.95;100267.72;5011781;28;20041;-69
2023/04/14 00:20:53;;;;;;;0.38;0.30;;;;;;;8.93;86.49;100267.63;4998905;28;20091;-69
2023/04/14 00:23:21;;;;;;;0.45;0.45;;;;;;;8.80;86.48;100263.53;5009981;28;20124;-69
2023/04/14 00:25:48;;;;;;;0.28;0.28;;;;;;;8.78;86.29;100270.38;5003299;28;20037;-69
2023/04/14 00:28:14;;;;;;;0.25;0.25;;;;;;;8.75;86.43;100271.84;4985605;28;20613;-68
2023/04/14 00:30:39;;;;;;;0.40;0.40;;;;;;;8.65;86.72;100277.75;4972641;28;20120;-69
2023/04/14 00:33:05;;;;;;;0.68;0.25;;;;;;;8.73;86.30;100276.78;5003345;28;20111;-69
2023/04/14 00:35:31;;;;;;;1.20;0.45;;;;;;;8.74;87.14;100281.03;4992225;28;20387;-69
2023/04/14 00:37:57;;;;;;;0.28;0.28;;;;;;;8.82;86.72;100288.13;4990645;28;20029;-69
2023/04/14 00:40:23;;;;;;;0.93;0.50;;;;;;;8.79;87.10;100288.03;5008006;28;20744;-69
2023/04/14 00:42:49;;;;;;;0.47;0.47;;;;;;;8.73;86.97;100286.78;4993614;28;20038;-69
2023/04/14 00:45:15;;;;;;;0.95;0.65;;;;;;;8.62;86.88;100291.91;4992946;28;20080;-68
2023/04/14 00:47:45;;;;;;;0.30;0.30;;;;;;;8.52;87.03;100291.66;5002249;28;20499;-69
2023/04/14 00:50:12;;;;;;;2.07;0.57;;;;;;;8.53;86.88;100299.38;5007672;28;20037;-69
2023/04/14 00:52:38;;;;;;;0.55;0.55;;;;;;;8.52;86.85;100295.13;4997021;28;20371;-68
2023/04/14 00:55:05;;;;;;;0.57;0.43;;;;;;;8.25;87.02;100297.91;5002681;28;20446;-69
2023/04/14 00:57:30;;;;;;;0.50;0.50;;;;;;;8.16;87.93;100298.88;5010759;28;20041;-69
2023/04/14 01:00:01;;;;;;;0.30;0.25;;;;;;;8.33;87.86;100303.13;4991914;28;20037;-69
2023/04/14 01:02:28;;;;;;;0.40;0.40;;;;;;;8.20;87.80;100299.72;4988087;28;20105;-69
2023/04/14 01:04:53;;;;;;;0.40;0.40;;;;;;;8.20;88.07;100302.41;4992418;28;20397;-69
2023/04/14 01:07:20;;;;;;;1.27;0.63;;;;;;;8.19;87.53;100310.78;5010322;28;20117;-69
2023/04/14 01:09:46;;;;;;;0.55;0.52;;;;;;;8.08;87.42;100310.53;5000656;28;20064;-69
2023/04/14 01:12:22;;;;;;;0.93;0.73;;;;;;;8.06;87.56;100307.44;5009483;28;20069;-68
2023/04/14 01:14:58;;;;;;;0.40;0.40;;;;;;;8.07;87.39;100297.50;4969761;28;20058;-68
2023/04/14 01:17:44;;;;;;;1.52;0.85;;;;;;;8.13;87.07;100306.81;4992940;28;20518;-69
2023/04/14 01:20:21;;;;;;;0.40;0.40;;;;;;;8.16;86.58;100306.13;4989528;28;20503;-69
2023/04/14 01:23:31;;;;;;;0.50;0.40;;;;;;;7.83;86.83;100305.69;4996831;28;20022;-69
2023/04/14 01:26:19;;;;;;;0.30;0.30;;;;;;;7.62;87.89;100308.59;5000262;28;20045;-69
2023/04/14 01:29:01;;;;;;;0.40;0.40;;;;;;;7.74;87.87;100307.75;4975378;28;20100;-69
2023/04/14 01:31:37;;;;;;;0.45;0.45;;;;;;;7.84;88.09;100304.56;5012010;28;20395;-69
2023/04/14 01:34:14;;;;;;;0.40;0.40;;;;;;;7.73;87.57;100304.28;5001172;28;20518;-69
2023/04/14 01:36:43;;;;;;;0.75;0.43;;;;;;;7.76;87.74;100300.91;4995236;28;20026;-69
2023/04/14 01:39:18;;;;;;;3.63;0.40;;;;;;;7.76;86.57;100308.19;5006988;28;20042;-68
2023/04/14 01:41:47;;;;;;;1.20;0.68;;;;;;;7.71;87.19;100305.75;5015232;28;20037;-69
2023/04/14 01:44:16;;;;;;;0.82;0.50;;;;;;;7.55;87.89;100302.28;5001115;28;20042;-69
2023/04/14 01:46:43;;;;;;;0.38;0.38;;;;;;;7.64;87.58;100301.00;4991432;28;20513;-69
2023/04/14 01:49:10;;;;;;;0.90;0.90;;;;;;;7.70;87.15;100302.31;4989310;28;20026;-69
2023/04/14 01:51:38;;;;;;;0.73;0.60;;;;;;;7.58;86.48;100305.03;4992949;28;20026;-69
2023/04/14 01:54:07;;;;;;;0.75;0.50;;;;;;;7.50;87.43;100313.22;4996337;28;20025;-69
2023/04/14 01:56:36;;;;;;;0.20;0.20;;;;;;;7.52;87.20;100308.31;5013304;28;20034;-69
2023/04/14 01:59:02;;;;;;;0.35;0.35;;;;;;;7.58;87.42;100314.97;4992817;28;20033;-69
2023/04/14 02:01:29;;;;;;;0.50;0.50;;;;;;;7.48;87.81;100310.09;4995596;28;20041;-69
2023/04/14 02:03:58;;;;;;;0.40;0.40;;;;;;;7.49;87.51;100312.44;4986352;28;20050;-68
2023/04/14 02:06:26;;;;;;;0.50;0.50;;;;;;;7.47;87.70;100313.91;5013168;28;20040;-69
2023/04/14 02:08:52;;;;;;;0.82;0.73;;;;;;;7.52;88.08;100317.13;4995617;28;20060;-68
2023/04/14 02:11:19;;;;;;;0.40;0.40;;;;;;;7.53;87.59;100315.22;4995863;28;20038;-69
2023/04/14 02:13:45;;;;;;;0.20;0.20;;;;;;;7.59;87.22;100313.88;5009686;28;20042;-70
2023/04/14 02:16:12;;;;;;;0.32;0.32;;;;;;;7.60;87.58;100320.78;4990761;28;20029;-69
2023/04/14 02:18:39;;;;;;;0.30;0.30;;;;;;;7.66;87.34;100319.41;5013650;28;20042;-69
2023/04/14 02:21:05;;;;;;;0.73;0.60;;;;;;;7.69;86.85;100321.38;4994933;28;20038;-68
2023/04/14 02:23:31;;;;;;;0.40;0.40;;;;;;;7.70;86.56;100331.00;4992088;28;20044;-69
2023/04/14 02:26:03;;;;;;;0.88;0.45;;;;;;;7.66;86.43;100330.13;5011842;28;20034;-68
2023/04/14 02:28:33;;;;;;;0.30;0.30;;;;;;;7.43;87.55;100329.91;4992712;28;20066;-68
2023/04/14 02:31:02;;;;;;;0.40;0.40;;;;;;;7.49;87.53;100327.75;5008827;28;20049;-69
2023/04/14 02:33:33;;;;;;;0.45;0.45;;;;;;;7.39;87.47;100333.59;5008638;28;20118;-68
2023/04/14 02:36:17;;;;;;;0.68;0.52;;;;;;;7.44;87.59;100336.00;5013584;28;20117;-69
2023/04/14 02:38:56;;;;;;;0.52;0.43;;;;;;;7.38;86.67;100334.69;4997520;28;20033;-69
2023/04/14 02:41:27;;;;;;;0.40;0.40;;;;;;;7.35;86.80;100332.72;4976304;28;20026;-69
2023/04/14 02:44:02;;;;;;;0.73;0.73;;;;;;;7.32;87.15;100334.94;4992649;28;20029;-69
2023/04/14 02:46:34;;;;;;;0.38;0.32;;;;;;;7.27;86.51;100339.78;4992791;28;20069;-69
2023/04/14 02:49:04;;;;;;;1.75;0.60;;;;;;;7.25;86.29;100336.66;4985504;28;20140;-68
2023/04/14 02:51:35;;;;;;;0.30;0.30;;;;;;;7.17;86.72;100341.03;5005384;28;20049;-69
2023/04/14 02:54:01;;;;;;;1.95;0.77;;;;;;;7.18;87.02;100334.53;5003885;28;20030;-69
2023/04/14 02:56:38;;;;;;;0.30;0.30;;;;;;;7.15;86.76;100334.44;4982322;28;20022;-69
2023/04/14 02:59:04;;;;;;;0.47;0.47;;;;;;;7.13;86.31;100336.69;4980001;28;20065;-68
2023/04/14 03:01:32;;;;;;;0.70;0.70;;;;;;;6.82;86.67;100340.00;4974792;28;20383;-68
2023/04/14 03:03:58;;;;;;;0.32;0.32;;;;;;;6.72;87.40;100337.78;4987645;28;20041;-68
2023/04/14 03:06:27;;;;;;;0.50;0.50;;;;;;;6.84;87.98;100340.44;4985903;28;20494;-68
2023/04/14 03:08:54;;;;;;;0.60;0.60;;;;;;;6.95;87.58;100336.16;4994810;28;20497;-68
2023/04/14 03:11:21;;;;;;;0.32;0.32;;;;;;;6.85;87.70;100333.19;4988882;28;20061;-68
2023/04/14 03:13:53;;;;;;;0.50;0.50;;;;;;;6.83;87.89;100335.44;4980422;28;20088;-68
2023/04/14 03:16:20;;;;;;;0.77;0.50;;;;;;;6.79;88.63;100342.56;4985212;28;20433;-68
2023/04/14 03:18:50;;;;;;;0.95;0.60;;;;;;;6.79;87.81;100338.00;4989622;28;20398;-68
2023/04/14 03:21:18;;;;;;;0.90;0.70;;;;;;;6.71;88.58;100341.56;4985097;28;20034;-68
2023/04/14 03:23:47;;;;;;;0.35;0.35;;;;;;;6.66;88.34;100343.69;4981992;28;20083;-68
2023/04/14 03:26:17;;;;;;;0.82;0.75;;;;;;;6.65;89.35;100334.09;4983547;28;20125;-68
2023/04/14 03:28:47;;;;;;;1.42;1.05;;;;;;;6.63;89.50;100344.34;4982640;28;20034;-69
2023/04/14 03:31:17;;;;;;;0.70;0.70;;;;;;;6.80;89.46;100344.91;5005186;28;20627;-68
2023/04/14 03:33:54;;;;;;;0.98;0.68;;;;;;;6.88;89.00;100344.00;5000618;28;20060;-69
2023/04/14 03:36:21;;;;;;;0.82;0.82;;;;;;;6.99;88.20;100342.41;4997641;28;20030;-70
2023/04/14 03:38:48;;;;;;;0.63;0.63;;;;;;;6.98;87.75;100350.78;4989808;28;20529;-71
2023/04/14 03:41:18;;;;;;;0.80;0.80;;;;;;;7.06;87.55;100347.19;4982516;28;20038;-72
2023/04/14 03:43:47;;;;;;;0.70;0.40;;;;;;;7.10;87.30;100353.44;4979111;28;20041;-71
2023/04/14 03:46:14;;;;;;;0.52;0.52;;;;;;;7.03;87.13;100348.66;4987273;28;20121;-72
2023/04/14 03:48:43;;;;;;;0.95;0.57;;;;;;;7.03;87.03;100359.34;4990353;28;20394;-70
2023/04/14 03:51:14;;;;;;;0.65;0.65;;;;;;;6.86;87.01;100351.59;4980145;23;20054;-57
2023/04/14 03:53:43;;;;;;;1.45;0.63;;;;;;;6.83;87.92;100360.25;4953150;28;20042;-58
2023/04/14 03:56:14;;;;;;;1.00;0.52;;;;;;;6.84;87.81;100361.84;4964972;28;20034;-51
2023/04/14 03:58:46;;;;;;;0.47;0.43;;;;;;;6.82;87.51;100357.94;4952960;28;20032;-57
2023/04/14 04:01:13;;;;;;;0.80;0.70;;;;;;;6.88;87.26;100364.63;4947832;28;20421;-56
2023/04/14 04:03:39;;;;;;;0.43;0.43;;;;;;;6.93;87.64;100351.78;4925838;28;20430;-58
2023/04/14 04:06:06;;;;;;;0.50;0.50;;;;;;;6.93;87.54;100353.69;4948508;28;20520;-56
2023/04/14 04:08:34;;;;;;;0.45;0.45;;;;;;;6.93;86.71;100361.72;4945011;28;20524;-54
2023/04/14 04:11:06;;;;;;;0.45;0.40;;;;;;;6.93;86.96;100357.13;4940211;28;20027;-55
2023/04/14 04:13:34;;;;;;;0.47;0.47;;;;;;;6.95;86.96;100357.59;4962681;28;20114;-53
2023/04/14 04:16:02;;;;;;;1.60;0.73;;;;;;;6.94;86.82;100361.38;4930022;28;20031;-53
2023/04/14 04:18:30;;;;;;;0.30;0.30;;;;;;;6.87;86.80;100355.03;4932553;28;20489;-56
2023/04/14 04:20:57;;;;;;;0.50;0.50;;;;;;;6.76;87.66;100364.63;4928929;29;20039;-54
2023/04/14 04:23:26;;;;;;;0.70;0.70;;;;;;;6.75;87.56;100363.88;4962321;28;20110;-54
2023/04/14 04:25:52;;;;;;;0.20;0.20;;;;;;;6.83;87.28;100364.88;4955207;28;20027;-54
2023/04/14 04:28:28;;;;;;;1.88;0.70;;;;;;;6.80;87.63;100362.84;4929037;29;20031;-55
2023/04/14 04:30:57;;;;;;;0.30;0.30;;;;;;;6.79;87.30;100359.41;4929606;29;20118;-55
2023/04/14 04:33:26;;;;;;;0.82;0.60;;;;;;;6.74;87.96;100370.31;4927458;28;20482;-56
2023/04/14 04:35:54;;;;;;;0.52;0.52;;;;;;;6.71;88.00;100362.97;4960710;28;20047;-54
2023/04/14 04:38:22;;;;;;;0.50;0.50;;;;;;;6.79;88.22;100364.75;4960215;28;20105;-55
2023/04/14 04:41:08;;;;;;;0.50;0.50;;;;;;;6.84;87.89;100364.53;4936962;28;20058;-54
2023/04/14 04:43:34;;;;;;;1.58;0.88;;;;;;;6.87;88.58;100368.44;4891052;29;20074;-56
2023/04/14 04:46:23;;;;;;;0.47;0.30;;;;;;;6.86;88.36;100364.97;4919363;29;20246;-55
2023/04/14 04:48:51;;;;;;;0.65;0.43;;;;;;;6.79;88.35;100366.66;4918109;29;20104;-55
2023/04/14 04:51:17;;;;;;;0.40;0.40;;;;;;;6.79;89.09;100369.31;4908378;29;20040;-58
2023/04/14 04:53:43;;;;;;;0.88;0.65;;;;;;;6.81;89.21;100373.22;4909667;29;20442;-57
2023/04/14 04:56:09;;;;;;;0.30;0.30;;;;;;;6.95;88.94;100373.63;4885036;29;20034;-58
2023/04/14 04:58:34;;;;;;;0.65;0.40;;;;;;;6.96;89.27;100371.75;4912493;29;20047;-52
2023/04/14 05:01:09;;;;;;;0.30;0.30;;;;;;;6.95;88.95;100365.59;4926071;29;20058;-53
2023/04/14 05:03:35;;;;;;;0.65;0.57;;;;;;;7.02;89.56;100373.09;4916024;29;20040;-53
2023/04/14 05:06:01;;;;;;;0.45;0.40;;;;;;;7.05;89.13;100367.03;4909530;29;20036;-54
2023/04/14 05:08:27;;;;;;;0.50;0.50;;;;;;;7.01;89.99;100371.50;4907023;29;20048;-54
2023/04/14 05:10:52;;;;;;;0.43;0.43;;;;;;;7.01;89.55;100364.25;4908051;29;20036;-54
2023/04/14 05:13:18;;;;;;;0.68;0.50;;;;;;;7.07;90.21;100362.91;4898015;29;20040;-53
2023/04/14 05:15:43;;;;;;;0.43;0.43;;;;;;;7.14;90.26;100365.78;4911330;29;20036;-54
2023/04/14 05:18:09;;;;;;;0.88;0.68;;;;;;;7.18;90.18;100366.69;4910059;29;20071;-57
2023/04/14 05:20:35;;;;;;;0.50;0.50;;;;;;;7.28;90.27;100362.75;4941901;28;20133;-55
2023/04/14 05:23:01;;;;;;;0.22;0.22;;;;;;;7.34;89.79;100374.78;4958168;28;20042;-57
2023/04/14 05:25:26;;;;;;;0.45;0.45;;;;;;;7.40;89.84;100368.06;4938986;28;20031;-55
2023/04/14 05:27:52;;;;;;;0.95;0.50;;;;;;;7.46;90.11;100366.72;4953938;28;20110;-57
2023/04/14 05:30:18;;;;;;;0.50;0.50;;;;;;;7.45;90.85;100365.16;4941818;28;20549;-57
2023/04/14 05:32:43;;;;;;;0.40;0.40;;;;;;;7.54;90.70;100379.19;4935691;28;20032;-57
2023/04/14 05:35:08;;;;;;;0.65;0.65;;;;;;;7.64;90.02;100375.25;4938007;28;20505;-57
2023/04/14 05:37:34;;;;;;;0.60;0.60;;;;;;;7.63;90.17;100374.44;4935643;28;20496;-57
2023/04/14 05:40:00;;;;;;;0.73;0.70;;;;;;;7.72;90.61;100374.31;4950040;28;20035;-57
2023/04/14 05:42:25;;;;;;;0.63;0.60;;;;;;;7.66;90.64;100373.00;4938034;28;20031;-57
2023/04/14 05:44:51;;;;;;;1.20;0.70;;;;;;;7.70;90.73;100388.06;4942806;28;20059;-55
2023/04/14 05:47:16;;;;;;;3.03;0.93;;;;;;;7.82;90.33;100379.19;4942127;28;20104;-56
2023/04/14 05:49:42;;;;;;;3.25;1.40;;;;;;;7.85;90.74;100389.22;4937336;28;20043;-52
2023/04/14 05:52:07;;;;;;;1.52;1.27;;;;;;;7.83;90.60;100386.09;4945220;28;20038;-55
2023/04/14 05:54:33;;;;;;;1.08;0.98;;;;;;;7.98;90.41;100383.44;4951128;28;20031;-54
2023/04/14 05:56:58;;;;;;;2.08;1.10;;;;;;;8.08;90.36;100379.47;4932519;28;20401;-54
2023/04/14 05:59:24;;;;;;;0.80;0.77;;;;;;;8.20;89.76;100379.41;4946905;28;20047;-54
2023/04/14 06:01:50;;;;;;;4.50;0.80;;;;;;;8.23;90.08;100383.31;4951735;28;20557;-56
2023/04/14 06:04:15;;;;;;;1.00;0.65;;;;;;;8.29;89.68;100385.41;4951858;28;20468;-56
2023/04/14 06:06:41;;;;;;;0.98;0.73;;;;;;;8.35;89.63;100392.06;4941034;28;20046;-54
2023/04/14 06:09:06;;;;;;;3.92;0.90;;;;;;;8.41;89.09;100384.53;4939513;28;20892;-57
2023/04/14 06:11:32;;;;;;;2.05;0.60;;;;;;;8.41;89.73;100387.22;4945296;28;20050;-58
2023/04/14 06:13:57;;;;;;;0.80;0.73;;;;;;;8.49;89.46;100387.06;4943622;28;20124;-56
2023/04/14 06:16:23;;;;;;;0.73;0.65;;;;;;;8.52;90.26;100390.94;4932336;28;20050;-59
2023/04/14 06:18:48;;;;;;;0.47;0.40;;;;;;;8.51;90.74;100384.81;4946808;28;20043;-56
2023/04/14 06:21:14;;;;;;;1.27;0.68;;;;;;;8.64;90.81;100382.78;4951532;28;20047;-54
2023/04/14 06:23:39;;;;;;;0.68;0.47;;;;;;;8.80;90.45;100387.03;4946457;28;20115;-56
2023/04/14 06:26:05;;;;;;;0.60;0.60;;;;;;;8.90;90.15;100386.47;4952299;28;20031;-55
2023/04/14 06:28:31;;;;;;;0.40;0.40;;;;;;;9.02;90.20;100388.25;4934659;28;20042;-57
2023/04/14 06:30:56;;;;;;;0.57;0.32;;;;;;;9.13;90.59;100385.81;4934991;28;20529;-55
2023/04/14 06:33:22;;;;;;;0.20;0.20;;;;;;;9.25;90.63;100389.19;4937926;28;20034;-56
2023/04/14 06:35:48;;;;;;;0.40;0.40;;;;;;;9.44;90.28;100380.34;4946809;28;20047;-55
2023/04/14 06:38:14;;;;;;;0.38;0.38;;;;;;;9.56;90.13;100380.22;4942319;28;20077;-58
2023/04/14 06:40:39;;;;;;;0.55;0.55;;;;;;;9.68;90.71;100377.34;4940442;28;20106;-55
2023/04/14 06:43:09;;;;;;;0.43;0.43;;;;;;;9.84;90.78;100378.03;4940111;28;20043;-56
2023/04/14 06:45:35;;;;;;;0.35;0.35;;;;;;;9.98;90.05;100381.00;4939988;28;20039;-58
2023/04/14 06:48:01;;;;;;;0.40;0.40;;;;;;;10.00;89.83;100374.13;4947216;28;20487;-58
2023/04/14 06:50:26;;;;;;;0.25;0.25;;;;;;;10.13;89.83;100382.84;4935891;28;20041;-56
2023/04/14 06:52:52;;;;;;;0.68;0.63;;;;;;;10.14;89.18;100381.72;4930367;28;20043;-58
2023/04/14 06:55:17;;;;;;;0.80;0.60;;;;;;;10.11;89.12;100371.66;4914694;29;20540;-55
2023/04/14 06:57:43;;;;;;;0.35;0.35;;;;;;;10.18;88.71;100374.44;4948952;28;20484;-56
2023/04/14 07:00:09;;;;;;;0.73;0.50;;;;;;;10.18;88.85;100379.84;4939319;28;20047;-56
2023/04/14 07:02:35;;;;;;;0.70;0.70;;;;;;;10.25;88.25;100377.28;4956998;28;20031;-53
2023/04/14 07:05:01;;;;;;;1.60;0.50;;;;;;;10.26;88.57;100378.81;4951186;28;20026;-56
2023/04/14 07:07:28;;;;;;;0.55;0.55;;;;;;;10.33;88.08;100381.66;4945602;28;20035;-57
2023/04/14 07:09:55;;;;;;;0.40;0.40;;;;;;;10.39;87.91;100371.38;4960507;28;20035;-57
2023/04/14 07:12:21;;;;;;;0.57;0.40;;;;;;;10.45;87.73;100378.75;4958860;28;20042;-55
2023/04/14 07:14:50;;;;;;;0.90;0.70;;;;;;;10.50;87.80;100380.38;4954361;28;20020;-57
2023/04/14 07:17:19;;;;;;;1.35;0.73;;;;;;;10.59;87.47;100383.59;4949987;28;20027;-56
2023/04/14 07:19:45;;;;;;;0.57;0.35;;;;;;;10.65;87.80;100377.53;4950866;28;20122;-60
2023/04/14 07:22:11;;;;;;;0.63;0.50;;;;;;;10.69;87.56;100383.75;4953245;28;20127;-55
2023/04/14 07:24:37;;;;;;;0.45;0.45;;;;;;;10.74;86.93;100380.75;4943052;28;20106;-55
2023/04/14 07:27:06;;;;;;;0.68;0.50;;;;;;;10.81;87.11;100388.97;4943193;28;20038;-56
2023/04/14 07:29:32;;;;;;;0.47;0.45;;;;;;;10.87;86.47;100389.41;4944136;28;20035;-56
2023/04/14 07:31:58;;;;;;;0.65;0.38;;;;;;;10.94;86.50;100388.75;4948296;28;20143;-56
2023/04/14 07:34:23;;;;;;;0.93;0.50;;;;;;;11.05;85.99;100389.69;4939660;29;20114;-58
2023/04/14 07:36:49;;;;;;;0.75;0.50;;;;;;;11.12;85.65;100389.75;4933791;28;20437;-53
2023/04/14 07:39:15;;;;;;;0.47;0.47;;;;;;;11.23;85.46;100396.84;4937012;28;20039;-53
2023/04/14 07:41:40;;;;;;;0.50;0.50;;;;;;;11.32;85.24;100399.28;4946093;29;20043;-56
2023/04/14 07:44:06;;;;;;;1.08;0.85;;;;;;;11.42;83.90;100395.94;4970532;28;20073;-57
2023/04/14 07:46:31;;;;;;;0.28;0.28;;;;;;;11.50;84.31;100405.66;4946712;28;20070;-51
2023/04/14 07:48:57;;;;;;;0.57;0.57;;;;;;;11.60;83.57;100395.00;4953827;28;20039;-55
2023/04/14 07:51:23;;;;;;;0.30;0.30;;;;;;;11.76;83.21;100389.44;4955691;28;20057;-56
2023/04/14 07:53:51;;;;;;;0.98;0.85;;;;;;;11.85;83.15;100389.13;4947062;28;20027;-58
2023/04/14 07:56:16;;;;;;;0.43;0.43;;;;;;;11.94;82.56;100395.03;4931292;29;20575;-55
2023/04/14 07:58:41;;;;;;;3.33;0.45;;;;;;;11.99;81.30;100392.00;4951054;28;20122;-56
2023/04/14 08:01:07;;;;;;;0.28;0.28;;;;;;;12.04;81.02;100402.47;4946187;28;20034;-55
2023/04/14 08:03:36;;;;;;;0.68;0.38;;;;;;;12.18;81.05;100400.69;4949141;28;20034;-52
2023/04/14 08:06:04;;;;;;;0.50;0.50;;;;;;;12.27;80.29;100401.13;4942283;28;20039;-55
2023/04/14 08:08:29;;;;;;;0.80;0.25;;;;;;;12.43;79.72;100398.97;4957379;28;20027;-55
2023/04/14 08:10:55;;;;;;;0.95;0.38;;;;;;;12.64;79.10;100398.34;4953319;28;20162;-57
2023/04/14 08:13:20;;;;;;;0.30;0.30;;;;;;;12.72;78.04;100393.81;4953820;28;20089;-55
2023/04/14 08:15:46;;;;;;;0.13;0.13;;;;;;;12.78;76.76;100413.91;4938619;28;20508;-56
2023/04/14 08:18:11;;;;;;;0.32;0.30;;;;;;;12.89;76.96;100406.66;4937888;28;20051;-55
2023/04/14 08:20:37;;;;;;;0.30;0.30;;;;;;;12.81;76.70;100413.16;4945477;28;20031;-56
2023/04/14 08:23:03;;;;;;;0.40;0.28;;;;;;;12.83;75.69;100413.56;4927547;28;20038;-57
2023/04/14 08:25:28;;;;;;;0.30;0.30;;;;;;;12.90;75.87;100414.41;4935445;28;20045;-53
2023/04/14 08:27:54;;;;;;;0.40;0.30;;;;;;;12.92;74.91;100412.09;4938937;28;20048;-56
2023/04/14 08:30:19;;;;;;;0.20;0.20;;;;;;;12.83;75.06;100410.88;4940232;28;20039;-58
2023/04/14 08:32:45;;;;;;;0.57;0.35;;;;;;;12.91;75.30;100407.06;4941819;28;20045;-56
2023/04/14 08:35:13;;;;;;;1.02;0.70;;;;;;;12.82;75.14;100412.78;4942554;28;20073;-56
2023/04/14 08:37:39;;;;;;;0.50;0.30;;;;;;;13.05;75.67;100418.75;4944306;28;20381;-56
2023/04/14 08:40:08;;;;;;;0.55;0.20;;;;;;;13.15;74.87;100409.94;4946861;28;20027;-58
2023/04/14 08:42:34;;;;;;;0.22;0.22;;;;;;;13.07;75.33;100410.28;4946779;28;20069;-58
2023/04/14 08:45:00;;;;;;;0.82;0.40;;;;;;;13.25;75.26;100416.56;4943006;28;20047;-55
2023/04/14 08:47:32;;;;;;;2.85;0.68;;;;;;;13.36;74.69;100411.97;4949264;28;20075;-57
2023/04/14 08:50:06;;;;;;;0.90;0.32;;;;;;;13.48;74.17;100414.38;4948293;28;20027;-55
2023/04/14 08:52:34;;;;;;;0.20;0.10;;;;;;;13.54;73.84;100413.63;4943600;28;20090;-54
2023/04/14 08:55:01;;;;;;;0.30;0.30;;;;;;;13.46;73.68;100403.94;4944652;28;20078;-59
2023/04/14 08:57:30;;;;;;;4.38;0.50;;;;;;;13.47;72.53;100412.81;4946641;28;20110;-58
2023/04/14 08:59:56;;;;;;;0.20;0.20;;;;;;;13.62;72.86;100419.84;4947314;28;20039;-57
2023/04/14 09:02:22;;;;;;;1.95;1.27;;;;;;;13.69;73.22;100403.63;4945847;28;20038;-56
2023/04/14 09:04:48;;;;;;;0.70;0.20;;;;;;;13.84;72.54;100410.63;4946012;28;20441;-56
2023/04/14 09:07:34;;;;;;;0.45;0.28;;;;;;;13.87;72.66;100409.88;4948075;28;20035;-55
2023/04/14 09:10:00;;;;;;;2.50;0.35;;;;;;;13.86;73.04;100411.03;4865463;29;20071;-56
2023/04/14 09:12:47;;;;;;;0.40;0.20;;;;;;;13.86;72.63;100411.03;4865781;29;20073;-57
2023/04/14 09:15:13;;;;;;;0.20;0.15;;;;;;;13.84;70.81;100409.88;4791681;29;20046;-56
2023/04/14 09:17:38;;;;;;;0.55;0.30;;;;;;;13.95;70.93;100397.91;4775853;29;20104;-56
2023/04/14 09:20:05;;;;;;;1.65;0.30;;;;;;;14.05;70.77;100402.56;4794240;29;20069;-56
2023/04/14 09:22:31;;;;;;;0.30;0.30;;;;;;;14.09;70.75;100405.31;4795029;29;20103;-57
2023/04/14 09:24:57;;;;;;;0.10;0.10;;;;;;;14.14;70.71;100408.41;4795572;29;20043;-58
2023/04/14 09:27:22;;;;;;;0.10;0.10;;;;;;;14.08;69.50;100409.94;4794487;29;20545;-57
2023/04/14 09:29:50;;;;;;;0.10;0.10;;;;;;;14.13;69.40;100423.09;4795293;29;20054;-58
2023/04/14 09:32:16;;;;;;;0.30;0.05;;;;;;;14.13;68.76;100422.34;4792639;29;20058;-55
2023/04/14 09:34:53;;;;;;;0.03;0.03;;;;;;;14.25;67.34;100420.03;4789913;29;20474;-53
2023/04/14 09:37:20;;;;;;;0.10;0.10;;;;;;;14.27;67.41;100425.84;4791887;29;20569;-58
2023/04/14 09:39:50;;;;;;;0.13;0.13;;;;;;;14.30;67.16;100425.06;4795089;29;20126;-57
2023/04/14 09:42:17;;;;;;;0.50;0.28;;;;;;;14.40;65.75;100431.69;4796644;29;20042;-57
2023/04/14 09:44:56;;;;;;;0.20;0.20;;;;;;;14.45;65.69;100431.28;4790314;29;20066;-57
2023/04/14 09:47:23;;;;;;;0.17;0.15;;;;;;;14.47;65.59;100431.69;4828809;29;20130;-58
2023/04/14 09:49:56;;;;;;;0.20;0.10;;;;;;;14.48;65.05;100432.47;4862527;29;20037;-58
2023/04/14 09:52:35;;;;;;;0.10;0.10;;;;;;;14.34;66.07;100433.22;4972431;23;20045;-56
2023/04/14 09:55:00;;;;;;;0.03;0.03;;;;;;;14.39;66.07;100424.72;4994738;28;20064;-53
2023/04/14 09:57:27;;;;;;;0.10;0.10;;;;;;;14.43;66.60;100420.06;4983670;28;20050;-53
2023/04/14 09:59:53;;;;;;;0.10;0.10;;;;;;;14.31;67.41;100423.94;4976758;28;20126;-51
2023/04/14 10:02:18;;;;;;;0.10;0.10;;;;;;;14.31;66.30;100425.84;4981185;28;20557;-53
2023/04/14 10:04:44;;;;;;;0.35;0.10;;;;;;;14.36;66.07;100420.81;4971766;28;20034;-55
2023/04/14 10:07:11;;;;;;;0.00;0.00;;;;;;;14.46;66.37;100428.19;4981034;28;20030;-52
2023/04/14 10:09:37;;;;;;;0.38;0.38;;;;;;;14.50;65.62;100425.47;4981287;28;20058;-53
2023/04/14 10:12:11;;;;;;;0.00;0.00;;;;;;;14.53;65.77;100416.59;4990498;28;20390;-51
2023/04/14 10:14:38;;;;;;;0.22;0.22;;;;;;;14.54;65.70;100410.00;4989381;28;20092;-55
2023/04/14 10:17:05;;;;;;;0.10;0.10;;;;;;;14.61;66.42;100423.56;4982911;28;20767;-53
2023/04/14 10:19:31;;;;;;;0.90;0.20;;;;;;;14.62;65.25;100416.97;4985198;28;20553;-56
2023/04/14 10:21:56;;;;;;;0.03;0.03;;;;;;;14.61;65.15;100409.25;4979744;28;20038;-53
2023/04/14 10:24:23;;;;;;;0.15;0.15;;;;;;;14.57;65.50;100406.53;4982612;28;20437;-53
2023/04/14 10:26:50;;;;;;;0.20;0.13;;;;;;;14.61;65.47;100404.59;4983068;28;20069;-52
2023/04/14 10:29:15;;;;;;;0.10;0.10;;;;;;;14.39;66.70;100403.03;4983687;28;20038;-57
2023/04/14 10:31:45;;;;;;;0.30;0.25;;;;;;;14.33;66.56;100405.34;4969210;28;20033;-54
2023/04/14 10:34:12;;;;;;;1.77;0.30;;;;;;;14.54;67.10;100387.56;4982943;28;20030;-53
2023/04/14 10:36:38;;;;;;;0.40;0.30;;;;;;;14.75;66.89;100392.97;4984850;28;20121;-57
2023/04/14 10:39:05;;;;;;;1.60;0.38;;;;;;;14.80;66.67;100387.16;4983432;28;20052;-52
2023/04/14 10:41:42;;;;;;;0.40;0.20;;;;;;;14.90;65.77;100394.50;4977085;28;20070;-56
2023/04/14 10:44:33;;;;;;;0.08;0.08;;;;;;;14.99;65.73;100392.94;4985845;28;20054;-50
2023/04/14 10:47:01;;;;;;;0.15;0.10;;;;;;;15.05;66.19;100385.16;4989196;28;20054;-51
2023/04/14 10:49:32;;;;;;;0.57;0.38;;;;;;;14.99;65.93;100390.22;4976177;28;20031;-52
2023/04/14 10:52:02;;;;;;;;;;;;;;;15.01;65.81;100385.19;4984334;28;20037;-53
2023/04/14 10:54:53;;;;;;;0.13;0.10;;;;;;;15.06;65.42;100384.78;4978872;28;19961;-57
2023/04/14 10:57:22;;;;;;;0.20;0.20;;;;;;;15.16;65.28;100389.41;4983313;28;20125;-56
2023/04/14 10:59:53;;;;;;;0.40;0.22;;;;;;;15.02;63.12;100385.97;4986567;28;20042;-56
2023/04/14 11:02:23;;;;;;;0.25;0.25;;;;;;;14.96;65.15;100385.56;4981877;28;20039;-52
2023/04/14 11:05:01;;;;;;;0.20;0.20;;;;;;;15.05;65.30;100390.59;4980503;28;20493;-56
2023/04/14 11:07:28;;;;;;;0.10;0.10;;;;;;;15.08;64.74;100378.94;4982177;28;20501;-54
2023/04/14 11:10:00;;;;;;;0.45;0.20;;;;;;;15.15;65.15;100390.56;4983708;28;20555;-55
2023/04/14 11:12:30;;;;;;;0.77;0.40;;;;;;;15.27;64.73;100392.09;4990151;28;20043;-53
2023/04/14 11:15:01;;;;;;;3.97;0.30;;;;;;;15.30;64.55;100391.28;4984295;28;20039;-55
2023/04/14 11:17:29;;;;;;;0.50;0.40;;;;;;;15.06;64.70;100401.03;4985481;28;20113;-53
2023/04/14 11:19:56;;;;;;;0.93;0.40;;;;;;;14.97;64.97;100384.41;4986650;28;20035;-54
2023/04/14 11:22:41;;;;;;;0.35;0.15;;;;;;;15.12;64.21;100396.78;4984229;28;20046;-53
2023/04/14 11:25:09;;;;;;;0.00;0.00;;;;;;;15.09;64.49;100392.13;4984757;28;20034;-52
2023/04/14 11:27:36;;;;;;;0.10;0.10;;;;;;;15.19;64.61;100396.75;4980646;28;20424;-55
2023/04/14 11:30:02;;;;;;;0.13;0.10;;;;;;;15.24;64.67;100393.66;4985827;28;20038;-54
2023/04/14 11:32:29;;;;;;;0.47;0.22;;;;;;;15.31;63.60;100399.03;4984675;28;20038;-49
2023/04/14 11:35:05;;;;;;;0.32;0.32;;;;;;;15.22;63.75;100395.97;4988656;28;20596;-51